sensor_id;sensor_type;location;lat;lon;timestamp;pressure;altitude;pressure_sealevel;temperature;humidity
69173;BME280;56280;49.662;8.408;2023-04-21T00:02:21;100426.00;;;8.24;87.87
69173;BME280;56280;49.662;8.408;2023-04-21T00:04:47;100386.66;;;7.95;86.76
69173;BME280;56280;49.662;8.408;2023-04-21T00:07:14;100404.41;;;7.93;86.20
69173;BME280;56280;49.662;8.408;2023-04-21T00:09:40;100423.69;;;7.95;86.45
69173;BME280;56280;49.662;8.408;2023-04-21T00:12:06;100436.16;;;7.93;87.43
69173;BME280;56280;49.662;8.408;2023-04-21T00:14:31;100448.66;;;7.78;88.34
69173;BME280;56280;49.662;8.408;2023-04-21T00:16:57;100409.03;;;7.40;89.47
69173;BME280;56280;49.662;8.408;2023-04-21T00:19:24;100435.97;;;7.58;90.38
69173;BME280;56280;49.662;8.408;2023-04-21T00:21:50;100423.81;;;7.68;89.43
69173;BME280;56280;49.662;8.408;2023-04-21T00:24:15;100427.94;;;7.72;89.54
69173;BME280;56280;49.662;8.408;2023-04-21T00:26:40;100397.72;;;7.12;91.52
69173;BME280;56280;49.662;8.408;2023-04-21T00:29:06;100412.44;;;6.89;93.28
69173;BME280;56280;49.662;8.408;2023-04-21T00:31:31;100418.91;;;6.98;95.07
69173;BME280;56280;49.662;8.408;2023-04-21T00:33:56;100436.72;;;7.34;94.49
69173;BME280;56280;49.662;8.408;2023-04-21T00:36:21;100406.16;;;7.30;92.64
69173;BME280;56280;49.662;8.408;2023-04-21T00:38:49;100409.97;;;7.52;91.34
69173;BME280;56280;49.662;8.408;2023-04-21T00:41:14;100414.63;;;7.48;91.15
69173;BME280;56280;49.662;8.408;2023-04-21T00:43:59;100416.94;;;7.53;90.86
69173;BME280;56280;49.662;8.408;2023-04-21T00:46:24;100405.22;;;7.05;91.83
69173;BME280;56280;49.662;8.408;2023-04-21T00:48:50;100431.63;;;7.18;92.73
69173;BME280;56280;49.662;8.408;2023-04-21T00:51:16;100423.63;;;7.33;92.42
69173;BME280;56280;49.662;8.408;2023-04-21T00:53:43;100393.06;;;7.16;91.68
69173;BME280;56280;49.662;8.408;2023-04-21T00:56:09;100430.78;;;7.30;91.23
69173;BME280;56280;49.662;8.408;2023-04-21T00:58:35;100414.19;;;7.28;91.04
69173;BME280;56280;49.662;8.408;2023-04-21T01:01:01;100396.13;;;7.22;90.77
69173;BME280;56280;49.662;8.408;2023-04-21T01:03:29;100414.81;;;7.32;90.15
69173;BME280;56280;49.662;8.408;2023-04-21T01:05:55;100415.22;;;7.13;89.37
69173;BME280;56280;49.662;8.408;2023-04-21T01:08:21;100394.75;;;7.17;88.51
69173;BME280;56280;49.662;8.408;2023-04-21T01:10:46;100410.91;;;7.12;88.71
69173;BME280;56280;49.662;8.408;2023-04-21T01:13:12;100375.56;;;6.87;88.67
69173;BME280;56280;49.662;8.408;2023-04-21T01:15:37;100402.34;;;7.08;88.68
69173;BME280;56280;49.662;8.408;2023-04-21T01:18:02;100416.19;;;7.12;88.87
69173;BME280;56280;49.662;8.408;2023-04-21T01:20:27;100393.34;;;6.98;88.97
69173;BME280;56280;49.662;8.408;2023-04-21T01:22:54;100400.56;;;7.09;89.14
69173;BME280;56280;49.662;8.408;2023-04-21T01:25:20;100397.78;;;6.98;88.37
69173;BME280;56280;49.662;8.408;2023-04-21T01:27:50;100382.34;;;6.79;88.66
69173;BME280;56280;49.662;8.408;2023-04-21T01:30:16;100410.34;;;6.81;89.23
69173;BME280;56280;49.662;8.408;2023-04-21T01:32:41;100417.69;;;6.76;89.44
69173;BME280;56280;49.662;8.408;2023-04-21T01:35:07;100416.63;;;6.66;90.05
69173;BME280;56280;49.662;8.408;2023-04-21T01:37:33;100422.13;;;6.75;91.08
69173;BME280;56280;49.662;8.408;2023-04-21T01:40:00;100388.31;;;6.68;90.70
69173;BME280;56280;49.662;8.408;2023-04-21T01:42:29;100421.03;;;6.92;90.49
69173;BME280;56280;49.662;8.408;2023-04-21T01:44:55;100415.97;;;7.02;90.13
69173;BME280;56280;49.662;8.408;2023-04-21T01:47:21;100310.69;;;6.45;88.96
69173;BME280;56280;49.662;8.408;2023-04-21T01:49:49;100330.31;;;6.53;88.66
69173;BME280;56280;49.662;8.408;2023-04-21T01:52:14;100345.63;;;6.48;87.82
69173;BME280;56280;49.662;8.408;2023-04-21T01:54:40;100325.63;;;6.31;87.66
69173;BME280;56280;49.662;8.408;2023-04-21T01:57:08;100318.03;;;6.27;87.64
69173;BME280;56280;49.662;8.408;2023-04-21T01:59:34;100260.84;;;6.00;87.55
69173;BME280;56280;49.662;8.408;2023-04-21T02:01:59;100347.38;;;6.35;87.35
69173;BME280;56280;49.662;8.408;2023-04-21T02:04:27;100415.53;;;6.83;88.02
69173;BME280;56280;49.662;8.408;2023-04-21T02:06:53;100409.38;;;6.82;88.38
69173;BME280;56280;49.662;8.408;2023-04-21T02:09:21;100393.94;;;6.76;87.80
69173;BME280;56280;49.662;8.408;2023-04-21T02:11:49;100266.13;;;5.85;87.47
69173;BME280;56280;49.662;8.408;2023-04-21T02:14:15;100381.66;;;6.62;87.64
69173;BME280;56280;49.662;8.408;2023-04-21T02:16:43;100366.44;;;6.53;87.77
69173;BME280;56280;49.662;8.408;2023-04-21T02:19:15;100309.47;;;6.23;88.02
69173;BME280;56280;49.662;8.408;2023-04-21T02:21:40;100370.38;;;6.60;88.09
69173;BME280;56280;49.662;8.408;2023-04-21T02:24:06;100299.75;;;6.24;87.59
69173;BME280;56280;49.662;8.408;2023-04-21T02:26:31;100353.19;;;6.40;88.34
69173;BME280;56280;49.662;8.408;2023-04-21T02:29:02;100281.94;;;6.00;88.57
69173;BME280;56280;49.662;8.408;2023-04-21T02:31:28;100332.19;;;6.11;90.01
69173;BME280;56280;49.662;8.408;2023-04-21T02:33:54;100359.88;;;6.18;91.25
69173;BME280;56280;49.662;8.408;2023-04-21T02:36:22;100327.97;;;6.09;91.31
69173;BME280;56280;49.662;8.408;2023-04-21T02:38:48;100401.69;;;6.25;91.48
69173;BME280;56280;49.662;8.408;2023-04-21T02:41:13;100365.50;;;5.99;92.52
69173;BME280;56280;49.662;8.408;2023-04-21T02:43:39;100294.09;;;5.61;92.92
69173;BME280;56280;49.662;8.408;2023-04-21T02:46:08;100446.78;;;6.62;93.43
69173;BME280;56280;49.662;8.408;2023-04-21T02:48:34;100442.84;;;6.82;92.63
69173;BME280;56280;49.662;8.408;2023-04-21T02:50:59;100412.19;;;6.39;92.03
69173;BME280;56280;49.662;8.408;2023-04-21T02:53:25;100412.34;;;6.50;92.42
69173;BME280;56280;49.662;8.408;2023-04-21T02:55:50;100442.34;;;6.49;92.43
69173;BME280;56280;49.662;8.408;2023-04-21T02:58:15;100414.03;;;6.24;92.71
69173;BME280;56280;49.662;8.408;2023-04-21T03:00:41;100446.97;;;6.04;94.67
69173;BME280;56280;49.662;8.408;2023-04-21T03:03:06;100453.69;;;5.79;96.53
69173;BME280;56280;49.662;8.408;2023-04-21T03:05:31;100444.41;;;5.74;98.67
69173;BME280;56280;49.662;8.408;2023-04-21T03:07:57;100447.22;;;5.85;98.37
69173;BME280;56280;49.662;8.408;2023-04-21T03:10:22;100463.03;;;5.85;99.46
69173;BME280;56280;49.662;8.408;2023-04-21T03:12:47;100471.38;;;5.48;99.88
69173;BME280;56280;49.662;8.408;2023-04-21T03:15:12;100468.47;;;5.53;100.00
69173;BME280;56280;49.662;8.408;2023-04-21T03:17:39;100477.09;;;6.00;100.00
69173;BME280;56280;49.662;8.408;2023-04-21T03:20:05;100462.16;;;6.28;100.00
69173;BME280;56280;49.662;8.408;2023-04-21T03:22:33;100443.06;;;6.10;99.33
69173;BME280;56280;49.662;8.408;2023-04-21T03:24:58;100411.16;;;5.85;97.89
69173;BME280;56280;49.662;8.408;2023-04-21T03:27:24;100414.19;;;5.36;98.54
69173;BME280;56280;49.662;8.408;2023-04-21T03:29:52;100448.84;;;5.14;100.00
69173;BME280;56280;49.662;8.408;2023-04-21T03:32:20;100447.75;;;5.47;100.00
69173;BME280;56280;49.662;8.408;2023-04-21T03:34:45;100454.09;;;5.59;100.00
69173;BME280;56280;49.662;8.408;2023-04-21T03:37:10;100453.69;;;5.79;100.00
69173;BME280;56280;49.662;8.408;2023-04-21T03:39:36;100367.41;;;5.40;99.42
69173;BME280;56280;49.662;8.408;2023-04-21T03:42:01;100436.88;;;5.82;98.80
69173;BME280;56280;49.662;8.408;2023-04-21T03:44:26;100392.34;;;5.48;98.49
69173;BME280;56280;49.662;8.408;2023-04-21T03:46:53;100423.50;;;5.71;98.53
69173;BME280;56280;49.662;8.408;2023-04-21T03:49:19;100430.41;;;5.14;99.67
69173;BME280;56280;49.662;8.408;2023-04-21T03:51:44;100444.81;;;5.23;100.00
69173;BME280;56280;49.662;8.408;2023-04-21T03:54:10;100445.59;;;5.54;100.00
69173;BME280;56280;49.662;8.408;2023-04-21T03:56:37;100428.78;;;5.71;100.00
69173;BME280;56280;49.662;8.408;2023-04-21T03:59:03;100443.53;;;5.44;100.00
69173;BME280;56280;49.662;8.408;2023-04-21T04:01:28;100417.91;;;4.57;100.00
69173;BME280;56280;49.662;8.408;2023-04-21T04:03:53;100446.69;;;4.60;100.00
69173;BME280;56280;49.662;8.408;2023-04-21T04:06:19;100453.03;;;5.02;100.00
69173;BME280;56280;49.662;8.408;2023-04-21T04:08:44;100447.47;;;4.62;100.00
69173;BME280;56280;49.662;8.408;2023-04-21T04:11:10;100442.81;;;4.35;100.00
69173;BME280;56280;49.662;8.408;2023-04-21T04:13:36;100417.34;;;4.20;100.00
69173;BME280;56280;49.662;8.408;2023-04-21T04:16:01;100457.03;;;4.31;100.00
69173;BME280;56280;49.662;8.408;2023-04-21T04:18:27;100483.88;;;4.38;100.00
69173;BME280;56280;49.662;8.408;2023-04-21T04:20:53;100457.03;;;4.47;100.00
69173;BME280;56280;49.662;8.408;2023-04-21T04:23:18;100465.34;;;4.71;100.00
69173;BME280;56280;49.662;8.408;2023-04-21T04:25:43;100484.25;;;4.78;100.00
69173;BME280;56280;49.662;8.408;2023-04-21T04:28:09;100429.66;;;4.35;100.00
69173;BME280;56280;49.662;8.408;2023-04-21T04:30:36;100430.59;;;4.18;100.00
69173;BME280;56280;49.662;8.408;2023-04-21T04:33:05;100461.97;;;4.37;100.00
69173;BME280;56280;49.662;8.408;2023-04-21T04:35:30;100455.53;;;4.11;100.00
69173;BME280;56280;49.662;8.408;2023-04-21T04:37:56;100469.63;;;4.42;100.00
69173;BME280;56280;49.662;8.408;2023-04-21T04:40:22;100428.72;;;4.05;100.00
69173;BME280;56280;49.662;8.408;2023-04-21T04:42:47;100424.16;;;4.08;100.00
69173;BME280;56280;49.662;8.408;2023-04-21T04:45:15;100437.47;;;4.21;100.00
69173;BME280;56280;49.662;8.408;2023-04-21T04:47:40;100427.38;;;4.29;100.00
69173;BME280;56280;49.662;8.408;2023-04-21T04:50:06;100466.81;;;4.45;100.00
69173;BME280;56280;49.662;8.408;2023-04-21T04:52:31;100467.56;;;4.63;100.00
69173;BME280;56280;49.662;8.408;2023-04-21T04:54:56;100446.41;;;4.65;100.00
69173;BME280;56280;49.662;8.408;2023-04-21T04:57:22;100452.19;;;4.55;100.00
69173;BME280;56280;49.662;8.408;2023-04-21T04:59:47;100451.34;;;4.55;100.00
69173;BME280;56280;49.662;8.408;2023-04-21T05:02:13;100477.06;;;4.66;100.00
69173;BME280;56280;49.662;8.408;2023-04-21T05:04:39;100418.97;;;4.38;100.00
69173;BME280;56280;49.662;8.408;2023-04-21T05:07:05;100436.34;;;4.41;100.00
69173;BME280;56280;49.662;8.408;2023-04-21T05:09:32;100465.50;;;4.68;100.00
69173;BME280;56280;49.662;8.408;2023-04-21T05:11:57;100468.69;;;4.59;100.00
69173;BME280;56280;49.662;8.408;2023-04-21T05:14:23;100452.34;;;4.68;100.00
69173;BME280;56280;49.662;8.408;2023-04-21T05:16:48;100473.41;;;4.68;100.00
69173;BME280;56280;49.662;8.408;2023-04-21T05:19:13;100473.16;;;4.73;100.00
69173;BME280;56280;49.662;8.408;2023-04-21T05:21:38;100467.81;;;4.59;100.00
69173;BME280;56280;49.662;8.408;2023-04-21T05:24:04;100479.78;;;4.80;100.00
69173;BME280;56280;49.662;8.408;2023-04-21T05:26:29;100471.63;;;4.69;100.00
69173;BME280;56280;49.662;8.408;2023-04-21T05:28:56;100474.78;;;4.60;100.00
69173;BME280;56280;49.662;8.408;2023-04-21T05:31:22;100477.75;;;4.53;100.00
69173;BME280;56280;49.662;8.408;2023-04-21T05:33:48;100483.19;;;4.50;100.00
69173;BME280;56280;49.662;8.408;2023-04-21T05:36:14;100450.69;;;4.35;100.00
69173;BME280;56280;49.662;8.408;2023-04-21T05:38:39;100483.19;;;4.66;100.00
69173;BME280;56280;49.662;8.408;2023-04-21T05:41:05;100445.16;;;4.72;100.00
69173;BME280;56280;49.662;8.408;2023-04-21T05:43:31;100461.72;;;5.04;100.00
69173;BME280;56280;49.662;8.408;2023-04-21T05:46:02;100459.88;;;4.90;100.00
69173;BME280;56280;49.662;8.408;2023-04-21T05:48:32;100472.28;;;5.19;100.00
69173;BME280;56280;49.662;8.408;2023-04-21T05:51:11;100486.47;;;5.61;100.00
69173;BME280;56280;49.662;8.408;2023-04-21T05:53:37;100430.88;;;5.06;100.00
69173;BME280;56280;49.662;8.408;2023-04-21T05:56:03;100434.81;;;4.99;100.00
69173;BME280;56280;49.662;8.408;2023-04-21T05:58:30;100471.94;;;5.54;100.00
69173;BME280;56280;49.662;8.408;2023-04-21T06:00:55;100441.53;;;5.19;100.00
69173;BME280;56280;49.662;8.408;2023-04-21T06:03:20;100462.72;;;5.46;100.00
69173;BME280;56280;49.662;8.408;2023-04-21T06:05:52;100415.59;;;5.42;100.00
69173;BME280;56280;49.662;8.408;2023-04-21T06:08:17;100452.75;;;6.24;100.00
69173;BME280;56280;49.662;8.408;2023-04-21T06:10:43;100473.56;;;6.43;100.00
69173;BME280;56280;49.662;8.408;2023-04-21T06:13:14;100475.72;;;6.90;100.00
69173;BME280;56280;49.662;8.408;2023-04-21T06:15:40;100471.88;;;7.09;100.00
69173;BME280;56280;49.662;8.408;2023-04-21T06:18:05;100458.91;;;7.19;100.00
69173;BME280;56280;49.662;8.408;2023-04-21T06:20:31;100458.56;;;7.10;100.00
69173;BME280;56280;49.662;8.408;2023-04-21T06:22:56;100447.81;;;7.14;100.00
69173;BME280;56280;49.662;8.408;2023-04-21T06:25:22;100455.56;;;6.89;100.00
69173;BME280;56280;49.662;8.408;2023-04-21T06:27:47;100451.03;;;6.91;100.00
69173;BME280;56280;49.662;8.408;2023-04-21T06:30:21;100396.63;;;6.49;100.00
69173;BME280;56280;49.662;8.408;2023-04-21T06:32:50;100385.16;;;6.35;100.00
69173;BME280;56280;49.662;8.408;2023-04-21T06:35:15;100374.16;;;6.29;100.00
69173;BME280;56280;49.662;8.408;2023-04-21T06:38:01;100379.13;;;6.61;100.00
69173;BME280;56280;49.662;8.408;2023-04-21T06:40:27;100408.06;;;6.62;100.00
69173;BME280;56280;49.662;8.408;2023-04-21T06:42:55;100375.38;;;6.50;100.00
69173;BME280;56280;49.662;8.408;2023-04-21T06:45:21;100361.91;;;6.68;99.51
69173;BME280;56280;49.662;8.408;2023-04-21T06:47:58;100412.22;;;6.79;99.11
69173;BME280;56280;49.662;8.408;2023-04-21T06:50:23;100397.13;;;6.41;100.00
69173;BME280;56280;49.662;8.408;2023-04-21T06:53:05;100424.91;;;6.87;100.00
69173;BME280;56280;49.662;8.408;2023-04-21T06:55:38;100361.50;;;6.74;99.97
69173;BME280;56280;49.662;8.408;2023-04-21T06:58:09;100417.56;;;7.18;98.81
69173;BME280;56280;49.662;8.408;2023-04-21T07:00:35;100404.69;;;7.39;98.74
69173;BME280;56280;49.662;8.408;2023-04-21T07:03:03;100461.53;;;8.09;97.53
69173;BME280;56280;49.662;8.408;2023-04-21T07:05:46;100352.97;;;7.47;95.76
69173;BME280;56280;49.662;8.408;2023-04-21T07:08:15;100384.97;;;7.81;96.16
69173;BME280;56280;49.662;8.408;2023-04-21T07:10:48;100332.31;;;7.65;95.65
69173;BME280;56280;49.662;8.408;2023-04-21T07:13:22;100423.03;;;8.29;96.05
69173;BME280;56280;49.662;8.408;2023-04-21T07:15:55;100361.59;;;7.75;95.12
69173;BME280;56280;49.662;8.408;2023-04-21T07:18:26;100367.25;;;7.06;94.34
69173;BME280;56280;49.662;8.408;2023-04-21T07:20:57;100356.88;;;6.90;95.47
69173;BME280;56280;49.662;8.408;2023-04-21T07:23:32;100346.53;;;7.13;95.96
69173;BME280;56280;49.662;8.408;2023-04-21T07:26:01;100391.81;;;7.84;96.12
69173;BME280;56280;49.662;8.408;2023-04-21T07:28:35;100408.81;;;8.06;95.65
69173;BME280;56280;49.662;8.408;2023-04-21T07:31:13;100484.94;;;8.52;93.87
69173;BME280;56280;49.662;8.408;2023-04-21T07:33:47;100366.31;;;7.96;94.47
69173;BME280;56280;49.662;8.408;2023-04-21T07:36:32;100467.44;;;8.62;94.07
69173;BME280;56280;49.662;8.408;2023-04-21T07:39:00;100359.28;;;8.08;93.14
69173;BME280;56280;49.662;8.408;2023-04-21T07:41:31;100385.75;;;8.32;93.11
69173;BME280;56280;49.662;8.408;2023-04-21T07:44:03;100375.09;;;8.20;93.07
69173;BME280;56280;49.662;8.408;2023-04-21T07:49:24;100428.31;;;8.66;90.95
69173;BME280;56280;49.662;8.408;2023-04-21T07:51:54;100327.09;;;8.14;91.83
69173;BME280;56280;49.662;8.408;2023-04-21T07:54:19;100326.91;;;8.04;91.68
69173;BME280;56280;49.662;8.408;2023-04-21T07:56:45;100379.06;;;8.39;92.11
69173;BME280;56280;49.662;8.408;2023-04-21T07:59:10;100472.50;;;8.15;90.58
69173;BME280;56280;49.662;8.408;2023-04-21T08:01:35;100467.59;;;8.48;91.88
69173;BME280;56280;49.662;8.408;2023-04-21T08:04:01;100461.06;;;8.89;92.06
69173;BME280;56280;49.662;8.408;2023-04-21T08:06:26;100453.09;;;8.40;91.91
69173;BME280;56280;49.662;8.408;2023-04-21T08:08:52;100474.78;;;7.32;93.69
69173;BME280;56280;49.662;8.408;2023-04-21T08:11:19;100488.31;;;7.40;97.57
69173;BME280;56280;49.662;8.408;2023-04-21T08:13:44;100453.31;;;7.36;99.00
69173;BME280;56280;49.662;8.408;2023-04-21T08:16:09;100484.31;;;8.35;98.66
69173;BME280;56280;49.662;8.408;2023-04-21T08:18:35;100474.94;;;8.18;96.67
69173;BME280;56280;49.662;8.408;2023-04-21T08:21:00;100428.16;;;7.56;97.17
69173;BME280;56280;49.662;8.408;2023-04-21T08:23:26;100467.31;;;8.88;97.96
69173;BME280;56280;49.662;8.408;2023-04-21T08:25:54;100457.47;;;9.48;96.26
69173;BME280;56280;49.662;8.408;2023-04-21T08:28:19;100443.63;;;9.67;90.94
69173;BME280;56280;49.662;8.408;2023-04-21T08:30:44;100423.31;;;9.21;88.52
69173;BME280;56280;49.662;8.408;2023-04-21T08:33:09;100427.31;;;9.26;89.71
69173;BME280;56280;49.662;8.408;2023-04-21T08:35:38;100426.91;;;9.08;90.28
69173;BME280;56280;49.662;8.408;2023-04-21T08:38:03;100431.28;;;9.32;91.68
69173;BME280;56280;49.662;8.408;2023-04-21T08:40:32;100408.72;;;9.04;92.22
69173;BME280;56280;49.662;8.408;2023-04-21T08:42:58;100392.88;;;9.49;90.23
69173;BME280;56280;49.662;8.408;2023-04-21T08:45:24;100372.59;;;8.43;92.32
69173;BME280;56280;49.662;8.408;2023-04-21T08:47:50;100428.81;;;8.71;93.69
69173;BME280;56280;49.662;8.408;2023-04-21T08:50:15;100431.31;;;8.97;93.92
69173;BME280;56280;49.662;8.408;2023-04-21T08:52:41;100423.56;;;9.18;94.30
69173;BME280;56280;49.662;8.408;2023-04-21T08:55:06;100422.63;;;8.59;94.13
69173;BME280;56280;49.662;8.408;2023-04-21T08:57:33;100432.50;;;8.57;94.32
69173;BME280;56280;49.662;8.408;2023-04-21T08:59:58;100436.34;;;8.40;97.06
69173;BME280;56280;49.662;8.408;2023-04-21T09:02:24;100445.56;;;8.96;99.16
69173;BME280;56280;49.662;8.408;2023-04-21T09:04:50;100459.31;;;8.76;97.91
69173;BME280;56280;49.662;8.408;2023-04-21T09:07:37;100427.84;;;9.54;95.75
69173;BME280;56280;49.662;8.408;2023-04-21T09:10:04;100396.47;;;9.93;91.35
69173;BME280;56280;49.662;8.408;2023-04-21T09:12:29;100402.47;;;10.73;88.52
69173;BME280;56280;49.662;8.408;2023-04-21T09:14:55;100416.28;;;11.82;85.17
69173;BME280;56280;49.662;8.408;2023-04-21T09:17:30;100398.91;;;11.26;80.37
69173;BME280;56280;49.662;8.408;2023-04-21T09:20:11;100399.59;;;10.32;83.84
69173;BME280;56280;49.662;8.408;2023-04-21T09:22:38;100416.69;;;10.28;87.68
69173;BME280;56280;49.662;8.408;2023-04-21T09:25:03;100403.53;;;10.70;87.89
69173;BME280;56280;49.662;8.408;2023-04-21T09:27:29;100409.38;;;10.64;86.78
69173;BME280;56280;49.662;8.408;2023-04-21T09:30:01;100394.38;;;10.95;85.79
69173;BME280;56280;49.662;8.408;2023-04-21T09:32:27;100374.56;;;11.00;82.91
69173;BME280;56280;49.662;8.408;2023-04-21T09:34:59;100397.22;;;9.95;84.80
69173;BME280;56280;49.662;8.408;2023-04-21T09:37:24;100358.84;;;10.43;86.07
69173;BME280;56280;49.662;8.408;2023-04-21T09:39:49;100377.47;;;10.97;84.88
69173;BME280;56280;49.662;8.408;2023-04-21T09:42:15;100355.41;;;11.06;84.38
69173;BME280;56280;49.662;8.408;2023-04-21T09:44:40;100356.66;;;11.63;82.15
69173;BME280;56280;49.662;8.408;2023-04-21T09:47:09;100375.34;;;11.42;81.25
69173;BME280;56280;49.662;8.408;2023-04-21T09:49:35;100373.94;;;11.17;80.72
69173;BME280;56280;49.662;8.408;2023-04-21T09:52:01;100370.28;;;11.39;81.44
69173;BME280;56280;49.662;8.408;2023-04-21T09:54:31;100357.22;;;10.84;81.94
69173;BME280;56280;49.662;8.408;2023-04-21T09:56:59;100358.78;;;10.87;83.71
69173;BME280;56280;49.662;8.408;2023-04-21T09:59:35;100357.88;;;11.49;82.47
69173;BME280;56280;49.662;8.408;2023-04-21T10:02:04;100357.69;;;11.72;82.84
69173;BME280;56280;49.662;8.408;2023-04-21T10:04:30;100370.88;;;11.74;82.74
69173;BME280;56280;49.662;8.408;2023-04-21T10:06:58;100340.94;;;11.50;81.27
69173;BME280;56280;49.662;8.408;2023-04-21T10:09:26;100345.88;;;11.65;80.67
69173;BME280;56280;49.662;8.408;2023-04-21T10:11:54;100357.69;;;12.22;78.25
69173;BME280;56280;49.662;8.408;2023-04-21T10:14:23;100338.75;;;12.74;75.33
69173;BME280;56280;49.662;8.408;2023-04-21T10:17:05;100331.31;;;12.58;72.31
69173;BME280;56280;49.662;8.408;2023-04-21T10:19:30;100350.25;;;12.75;75.55
69173;BME280;56280;49.662;8.408;2023-04-21T10:22:00;100321.50;;;12.88;74.04
69173;BME280;56280;49.662;8.408;2023-04-21T10:24:29;100361.19;;;11.73;76.47
69173;BME280;56280;49.662;8.408;2023-04-21T10:26:58;100341.19;;;11.88;80.52
69173;BME280;56280;49.662;8.408;2023-04-21T10:29:32;100340.13;;;12.10;78.72
69173;BME280;56280;49.662;8.408;2023-04-21T10:31:57;100325.19;;;11.78;78.22
69173;BME280;56280;49.662;8.408;2023-04-21T10:34:34;100336.38;;;12.22;78.13
69173;BME280;56280;49.662;8.408;2023-04-21T10:39:31;100351.22;;;11.75;79.01
69173;BME280;56280;49.662;8.408;2023-04-21T10:45:05;100316.72;;;12.04;80.62
69173;BME280;56280;49.662;8.408;2023-04-21T10:47:38;100321.91;;;12.06;80.49
69173;BME280;56280;49.662;8.408;2023-04-21T10:50:29;100319.44;;;12.24;81.15
69173;BME280;56280;49.662;8.408;2023-04-21T10:52:57;100321.53;;;12.69;80.31
69173;BME280;56280;49.662;8.408;2023-04-21T10:55:27;100325.16;;;12.58;79.40
69173;BME280;56280;49.662;8.408;2023-04-21T10:57:53;100287.16;;;12.17;80.71
69173;BME280;56280;49.662;8.408;2023-04-21T11:00:21;100305.06;;;12.73;79.10
69173;BME280;56280;49.662;8.408;2023-04-21T11:02:55;100284.38;;;12.57;78.24
69173;BME280;56280;49.662;8.408;2023-04-21T11:05:26;100292.41;;;12.95;80.13
69173;BME280;56280;49.662;8.408;2023-04-21T11:10:41;100287.47;;;13.00;79.23
69173;BME280;56280;49.662;8.408;2023-04-21T11:13:06;100292.06;;;13.18;79.37
69173;BME280;56280;49.662;8.408;2023-04-21T11:15:32;100283.44;;;12.96;80.90
69173;BME280;56280;49.662;8.408;2023-04-21T11:17:57;100258.31;;;13.36;80.51
69173;BME280;56280;49.662;8.408;2023-04-21T11:20:22;100263.66;;;13.64;79.24
69173;BME280;56280;49.662;8.408;2023-04-21T11:22:51;100249.44;;;13.63;77.29
69173;BME280;56280;49.662;8.408;2023-04-21T11:25:17;100266.31;;;13.64;78.72
69173;BME280;56280;49.662;8.408;2023-04-21T11:27:52;100258.91;;;13.58;77.83
69173;BME280;56280;49.662;8.408;2023-04-21T11:30:17;100242.63;;;13.33;77.45
69173;BME280;56280;49.662;8.408;2023-04-21T11:32:42;100254.53;;;13.57;77.01
69173;BME280;56280;49.662;8.408;2023-04-21T11:35:08;100229.16;;;13.53;78.15
69173;BME280;56280;49.662;8.408;2023-04-21T11:37:33;100262.84;;;14.17;76.67
69173;BME280;56280;49.662;8.408;2023-04-21T11:39:59;100254.59;;;14.29;74.94
69173;BME280;56280;49.662;8.408;2023-04-21T11:42:25;100256.34;;;14.38;75.30
69173;BME280;56280;49.662;8.408;2023-04-21T11:44:53;100241.63;;;13.98;73.53
69173;BME280;56280;49.662;8.408;2023-04-21T11:47:21;100225.38;;;14.09;74.25
69173;BME280;56280;49.662;8.408;2023-04-21T11:49:55;100228.22;;;13.90;73.09
69173;BME280;56280;49.662;8.408;2023-04-21T11:52:31;100228.72;;;14.11;77.14
69173;BME280;56280;49.662;8.408;2023-04-21T11:57:28;100223.16;;;14.22;75.62
69173;BME280;56280;49.662;8.408;2023-04-21T11:59:53;100229.78;;;14.36;74.11
69173;BME280;56280;49.662;8.408;2023-04-21T12:02:23;100187.63;;;14.30;73.62
69173;BME280;56280;49.662;8.408;2023-04-21T12:05:00;100223.34;;;14.65;72.50
69173;BME280;56280;49.662;8.408;2023-04-21T12:07:28;100215.19;;;14.57;72.56
69173;BME280;56280;49.662;8.408;2023-04-21T12:09:53;100198.53;;;14.81;72.75
69173;BME280;56280;49.662;8.408;2023-04-21T12:12:21;100206.13;;;14.68;72.74
69173;BME280;56280;49.662;8.408;2023-04-21T12:14:48;100202.53;;;14.85;74.37
69173;BME280;56280;49.662;8.408;2023-04-21T12:17:14;100207.81;;;15.03;70.78
69173;BME280;56280;49.662;8.408;2023-04-21T12:19:40;100199.75;;;15.29;70.45
69173;BME280;56280;49.662;8.408;2023-04-21T12:22:07;100207.13;;;15.44;73.13
69173;BME280;56280;49.662;8.408;2023-04-21T12:24:33;100212.09;;;15.30;68.49
69173;BME280;56280;49.662;8.408;2023-04-21T12:26:58;100209.16;;;15.58;67.34
69173;BME280;56280;49.662;8.408;2023-04-21T12:29:24;100172.84;;;15.47;68.19
69173;BME280;56280;49.662;8.408;2023-04-21T12:31:50;100198.72;;;15.98;65.21
69173;BME280;56280;49.662;8.408;2023-04-21T12:34:15;100207.25;;;15.93;67.21
69173;BME280;56280;49.662;8.408;2023-04-21T12:36:40;100177.44;;;16.04;67.28
69173;BME280;56280;49.662;8.408;2023-04-21T12:39:05;100202.75;;;16.27;64.27
69173;BME280;56280;49.662;8.408;2023-04-21T12:41:31;100169.06;;;16.24;63.53
69173;BME280;56280;49.662;8.408;2023-04-21T12:43:58;100192.16;;;16.50;65.13
69173;BME280;56280;49.662;8.408;2023-04-21T12:46:23;100176.56;;;16.53;63.27
69173;BME280;56280;49.662;8.408;2023-04-21T12:48:49;100180.09;;;16.46;63.57
69173;BME280;56280;49.662;8.408;2023-04-21T12:51:16;100195.22;;;16.06;64.63
69173;BME280;56280;49.662;8.408;2023-04-21T12:53:41;100204.06;;;16.14;63.97
69173;BME280;56280;49.662;8.408;2023-04-21T12:56:07;100191.69;;;16.38;63.40
69173;BME280;56280;49.662;8.408;2023-04-21T12:58:32;100178.75;;;16.41;62.03
69173;BME280;56280;49.662;8.408;2023-04-21T13:00:57;100168.41;;;16.14;62.29
69173;BME280;56280;49.662;8.408;2023-04-21T13:03:23;100189.50;;;16.25;63.98
69173;BME280;56280;49.662;8.408;2023-04-21T13:05:48;100157.00;;;16.36;61.46
69173;BME280;56280;49.662;8.408;2023-04-21T13:08:13;100146.88;;;16.55;63.48
69173;BME280;56280;49.662;8.408;2023-04-21T13:10:39;100157.75;;;16.70;60.80